createdAt,value
2023-03-16T00:02:04.217Z,69.32
2023-03-16T00:04:31.914Z,69.35
2023-03-16T00:06:59.541Z,69.38
2023-03-16T00:09:31.505Z,69.88
2023-03-16T00:11:59.347Z,69.47
2023-03-16T00:14:26.972Z,70.00
2023-03-16T00:16:54.581Z,70.04
2023-03-16T00:19:23.086Z,70.04
2023-03-16T00:21:51.802Z,70.12
2023-03-16T00:24:19.731Z,69.58
2023-03-16T00:26:47.323Z,70.04
2023-03-16T00:29:14.961Z,70.30
2023-03-16T00:31:44.193Z,70.15
2023-03-16T00:34:12.292Z,70.00
2023-03-16T00:36:40.000Z,70.39
2023-03-16T00:39:07.697Z,70.73
2023-03-16T00:41:38.129Z,69.96
2023-03-16T00:44:05.986Z,70.00
2023-03-16T00:46:33.793Z,70.35
2023-03-16T00:49:02.882Z,69.81
2023-03-16T00:51:33.825Z,70.33
2023-03-16T00:54:01.480Z,70.09
2023-03-16T00:56:29.189Z,69.99
2023-03-16T00:58:58.200Z,70.03
2023-03-16T01:01:26.518Z,70.46
2023-03-16T01:03:54.645Z,69.77
2023-03-16T01:06:22.374Z,69.48
2023-03-16T01:08:50.256Z,69.30
2023-03-16T01:11:18.428Z,69.08
2023-03-16T01:13:47.220Z,68.60
2023-03-16T01:16:15.040Z,68.79
2023-03-16T01:18:42.831Z,68.31
2023-03-16T01:21:10.516Z,68.27
2023-03-16T01:23:38.688Z,68.14
2023-03-16T01:26:06.267Z,68.38
2023-03-16T01:28:34.452Z,68.32
2023-03-16T01:31:02.429Z,68.09
2023-03-16T01:33:30.054Z,68.80
2023-03-16T01:35:58.264Z,68.15
2023-03-16T01:38:25.857Z,68.76
2023-03-16T01:40:53.876Z,69.10
2023-03-16T01:43:21.677Z,68.17
2023-03-16T01:45:49.455Z,68.12
2023-03-16T01:48:17.417Z,68.59
2023-03-16T01:50:45.207Z,68.83
2023-03-16T01:53:13.094Z,68.42
2023-03-16T01:55:40.677Z,68.13
2023-03-16T01:58:08.334Z,67.62
2023-03-16T02:00:36.537Z,67.70
2023-03-16T02:03:04.134Z,67.22
2023-03-16T02:05:31.753Z,66.95
2023-03-16T02:07:59.777Z,67.13
2023-03-16T02:10:27.537Z,66.69
2023-03-16T02:12:55.548Z,66.31
2023-03-16T02:15:23.148Z,66.51
2023-03-16T02:17:50.708Z,65.80
2023-03-16T02:20:18.374Z,66.18
2023-03-16T02:22:45.927Z,65.90
2023-03-16T02:25:14.592Z,65.81
2023-03-16T02:27:42.186Z,65.98
2023-03-16T02:30:09.831Z,65.80
2023-03-16T02:32:37.424Z,65.93
2023-03-16T02:35:05.380Z,65.56
2023-03-16T02:37:35.122Z,65.48
2023-03-16T02:40:03.803Z,66.18
2023-03-16T02:42:33.672Z,65.64
2023-03-16T02:45:01.299Z,66.03
2023-03-16T02:47:28.960Z,66.16
2023-03-16T02:49:57.139Z,66.28
2023-03-16T02:52:24.762Z,66.21
2023-03-16T02:54:52.331Z,66.24
2023-03-16T02:57:21.299Z,66.13
2023-03-16T02:59:48.874Z,66.30
2023-03-16T03:02:17.013Z,65.74
2023-03-16T03:04:46.481Z,66.06
2023-03-16T03:07:14.377Z,66.30
2023-03-16T03:09:43.167Z,66.31
2023-03-16T03:12:10.886Z,66.78
2023-03-16T03:14:39.429Z,66.64
2023-03-16T03:17:07.448Z,66.65
2023-03-16T03:19:35.380Z,66.03
2023-03-16T03:22:04.320Z,66.10
2023-03-16T03:24:31.887Z,66.25
2023-03-16T03:27:00.818Z,66.70
2023-03-16T03:29:34.496Z,66.72
2023-03-16T03:32:02.376Z,66.13
2023-03-16T03:34:29.959Z,66.24
2023-03-16T03:36:57.489Z,65.71
2023-03-16T03:39:25.929Z,65.90
2023-03-16T03:41:54.727Z,65.95
2023-03-16T03:44:22.587Z,65.30
2023-03-16T03:46:50.294Z,65.28
2023-03-16T03:49:17.874Z,65.16
2023-03-16T03:51:45.852Z,64.82
2023-03-16T03:54:13.482Z,64.47
2023-03-16T03:56:41.016Z,65.11
2023-03-16T03:59:08.571Z,64.46
2023-03-16T04:01:36.265Z,64.94
2023-03-16T04:04:05.406Z,64.62
2023-03-16T04:06:33.174Z,64.69
2023-03-16T04:09:01.151Z,65.08
2023-03-16T04:11:28.720Z,64.60
2023-03-16T04:13:56.286Z,64.79
2023-03-16T04:16:27.143Z,64.95
2023-03-16T04:18:54.751Z,64.56
2023-03-16T04:21:22.361Z,64.80
2023-03-16T04:23:49.949Z,64.76
2023-03-16T04:26:18.069Z,64.86
2023-03-16T04:28:46.022Z,64.20
2023-03-16T04:31:14.158Z,64.30
2023-03-16T04:33:42.772Z,64.87
2023-03-16T04:36:10.361Z,64.35
2023-03-16T04:38:37.981Z,64.26
2023-03-16T04:41:06.123Z,64.17
2023-03-16T04:43:36.443Z,64.48
2023-03-16T04:46:04.144Z,64.18
2023-03-16T04:48:32.448Z,63.92
2023-03-16T04:51:01.047Z,64.22
2023-03-16T04:53:29.250Z,63.78
2023-03-16T04:55:56.807Z,63.75
2023-03-16T04:58:24.580Z,64.02
2023-03-16T05:00:52.228Z,64.30
2023-03-16T05:03:19.776Z,64.44
2023-03-16T05:05:47.696Z,64.07
2023-03-16T05:08:15.351Z,63.50
2023-03-16T05:10:43.209Z,63.52
2023-03-16T05:13:10.762Z,63.88
2023-03-16T05:15:38.358Z,63.53
2023-03-16T05:18:06.528Z,63.36
2023-03-16T05:20:34.144Z,63.39
2023-03-16T05:23:01.828Z,63.60
2023-03-16T05:25:29.416Z,63.66
2023-03-16T05:27:57.106Z,63.23
2023-03-16T05:30:25.533Z,63.51
2023-03-16T05:32:54.833Z,63.36
2023-03-16T05:35:24.185Z,63.25
2023-03-16T05:37:51.966Z,63.14
2023-03-16T05:40:19.546Z,62.99
2023-03-16T05:42:47.128Z,63.22
2023-03-16T05:45:14.895Z,62.87
2023-03-16T05:47:42.468Z,63.19
2023-03-16T05:50:11.448Z,63.25
2023-03-16T05:52:39.088Z,62.69
2023-03-16T05:55:07.936Z,62.78
2023-03-16T05:57:35.572Z,62.67
2023-03-16T06:00:11.320Z,62.88
2023-03-16T06:02:39.022Z,63.13
2023-03-16T06:05:07.523Z,62.64
2023-03-16T06:07:35.193Z,63.24
2023-03-16T06:10:02.951Z,62.44
2023-03-16T06:12:30.578Z,63.06
2023-03-16T06:14:58.312Z,62.82
2023-03-16T06:17:25.987Z,63.07
2023-03-16T06:19:54.195Z,62.84
2023-03-16T06:22:21.976Z,62.63
2023-03-16T06:24:49.571Z,62.31
2023-03-16T06:27:18.669Z,62.05
2023-03-16T06:29:46.353Z,62.43
2023-03-16T06:32:13.978Z,62.40
2023-03-16T06:34:41.860Z,62.42
2023-03-16T06:37:09.485Z,61.76
2023-03-16T06:39:37.362Z,62.12
2023-03-16T06:42:05.804Z,62.47
2023-03-16T06:44:33.782Z,62.04
2023-03-16T06:47:01.378Z,61.84
2023-03-16T06:49:28.982Z,62.06
2023-03-16T06:51:56.862Z,61.77
2023-03-16T06:54:24.674Z,61.53
2023-03-16T06:56:52.968Z,61.54
2023-03-16T06:59:21.027Z,61.19
2023-03-16T07:01:50.422Z,60.66
2023-03-16T07:04:18.222Z,61.08
2023-03-16T07:06:45.943Z,61.04
2023-03-16T07:09:15.211Z,60.92
2023-03-16T07:11:42.830Z,60.70
2023-03-16T07:14:10.523Z,60.34
2023-03-16T07:16:38.174Z,60.75
2023-03-16T07:19:05.859Z,60.26
2023-03-16T07:21:39.466Z,60.03
2023-03-16T07:24:07.346Z,59.88
2023-03-16T07:26:35.079Z,59.82
2023-03-16T07:29:05.063Z,59.35
2023-03-16T07:31:32.817Z,59.46
2023-03-16T07:34:00.801Z,59.36
2023-03-16T07:36:28.681Z,58.64
2023-03-16T07:38:56.486Z,59.80
2023-03-16T07:41:25.530Z,59.00
2023-03-16T07:43:53.640Z,59.38
2023-03-16T07:46:21.332Z,59.05
2023-03-16T07:48:49.059Z,58.81
2023-03-16T07:51:16.730Z,58.42
2023-03-16T07:53:44.462Z,59.02
2023-03-16T07:56:12.642Z,59.44
2023-03-16T07:58:41.030Z,59.04
2023-03-16T08:01:09.583Z,59.04
2023-03-16T08:03:37.397Z,58.30
2023-03-16T08:06:06.172Z,58.48
2023-03-16T08:08:33.947Z,58.05
2023-03-16T08:11:01.847Z,58.00
2023-03-16T08:13:30.452Z,57.96
2023-03-16T08:16:02.222Z,57.60
2023-03-16T08:18:30.320Z,57.33
2023-03-16T08:20:58.045Z,57.13
2023-03-16T08:23:26.674Z,56.69
2023-03-16T08:25:54.582Z,56.39
2023-03-16T08:28:23.005Z,55.45
2023-03-16T08:30:51.188Z,55.38
2023-03-16T08:33:23.005Z,55.36
2023-03-16T08:35:51.342Z,55.17
2023-03-16T08:38:19.733Z,54.74
2023-03-16T08:40:48.912Z,54.41
2023-03-16T08:43:17.306Z,53.92
2023-03-16T08:45:45.083Z,53.85
2023-03-16T08:48:15.013Z,54.18
2023-03-16T08:50:43.436Z,53.69
2023-03-16T08:53:11.212Z,53.60
2023-03-16T08:55:39.263Z,53.11
2023-03-16T08:58:07.242Z,53.44
2023-03-16T09:00:35.840Z,53.55
2023-03-16T09:03:03.850Z,53.39
2023-03-16T09:05:31.745Z,53.41
2023-03-16T09:08:00.311Z,52.77
2023-03-16T09:10:29.339Z,52.72
2023-03-16T09:12:57.702Z,52.28
2023-03-16T09:15:25.538Z,52.55
2023-03-16T09:17:54.629Z,52.48
2023-03-16T09:20:26.442Z,52.58
2023-03-16T09:22:57.230Z,52.11
2023-03-16T09:25:25.643Z,52.83
2023-03-16T09:27:54.081Z,52.99
2023-03-16T09:30:22.007Z,53.09
2023-03-16T09:32:50.730Z,53.06
2023-03-16T09:35:19.059Z,53.08
2023-03-16T09:38:04.839Z,53.34
2023-03-16T09:40:33.895Z,53.61
2023-03-16T09:43:02.127Z,53.42
2023-03-16T09:45:30.141Z,53.69
2023-03-16T09:47:58.900Z,53.58
2023-03-16T09:50:30.286Z,53.29
2023-03-16T09:53:06.114Z,53.78
2023-03-16T09:55:33.932Z,53.69
2023-03-16T09:58:02.560Z,53.64
2023-03-16T10:00:31.035Z,53.74
2023-03-16T10:02:59.265Z,53.59
2023-03-16T10:05:27.512Z,53.13
2023-03-16T10:07:55.365Z,53.32
2023-03-16T10:10:24.715Z,52.69
2023-03-16T10:12:52.756Z,52.63
2023-03-16T10:15:21.254Z,52.02
2023-03-16T10:17:50.341Z,51.80
2023-03-16T10:20:18.149Z,51.14
2023-03-16T10:22:46.538Z,50.87
2023-03-16T10:25:14.305Z,51.67
2023-03-16T10:27:42.299Z,51.77
2023-03-16T10:30:10.170Z,51.61
2023-03-16T10:32:38.772Z,51.68
2023-03-16T10:35:07.612Z,51.45
2023-03-16T10:37:35.431Z,51.50
2023-03-16T10:40:04.777Z,51.24
2023-03-16T10:42:32.786Z,51.12
2023-03-16T10:45:02.680Z,50.62
2023-03-16T10:47:32.124Z,50.61
2023-03-16T10:49:59.973Z,50.06
2023-03-16T10:52:27.779Z,50.29
2023-03-16T10:54:55.979Z,49.71
2023-03-16T10:57:24.057Z,49.70
2023-03-16T10:59:52.620Z,49.94
2023-03-16T11:02:21.023Z,50.40
2023-03-16T11:04:49.723Z,50.18
2023-03-16T11:07:17.803Z,49.68
2023-03-16T11:09:45.878Z,49.13
2023-03-16T11:12:14.400Z,48.65
2023-03-16T11:14:42.399Z,49.21
2023-03-16T11:17:11.050Z,49.16
2023-03-16T11:19:38.960Z,49.35
2023-03-16T11:22:07.024Z,49.59
2023-03-16T11:24:35.953Z,49.89
2023-03-16T11:27:03.831Z,50.22
2023-03-16T11:29:32.812Z,50.49
2023-03-16T11:32:01.231Z,50.06
2023-03-16T11:34:29.291Z,50.60
2023-03-16T11:36:57.784Z,50.23
2023-03-16T11:39:26.503Z,50.27
2023-03-16T11:41:54.288Z,50.63
2023-03-16T11:44:22.601Z,50.34
2023-03-16T11:47:01.102Z,51.00
2023-03-16T11:49:30.215Z,51.43
2023-03-16T11:51:59.977Z,51.29
2023-03-16T11:54:35.353Z,51.10
2023-03-16T11:57:09.076Z,50.76
2023-03-16T11:59:37.559Z,50.57
2023-03-16T12:02:05.397Z,50.18
2023-03-16T12:04:33.522Z,50.44
2023-03-16T12:07:01.507Z,50.14
2023-03-16T12:09:29.511Z,49.63
2023-03-16T12:11:57.834Z,49.81
2023-03-16T12:14:25.569Z,49.26
2023-03-16T12:16:53.602Z,48.54
2023-03-16T12:19:22.071Z,48.63
2023-03-16T12:21:50.613Z,47.90
2023-03-16T12:24:18.369Z,47.71
2023-03-16T12:26:46.182Z,47.97
2023-03-16T12:29:14.186Z,46.82
2023-03-16T12:31:42.211Z,46.61
2023-03-16T12:34:10.548Z,45.79
2023-03-16T12:36:39.144Z,45.69
2023-03-16T12:39:07.299Z,44.47
2023-03-16T12:41:35.368Z,43.29
2023-03-16T12:44:04.289Z,41.90
2023-03-16T12:46:32.764Z,42.05
2023-03-16T12:49:01.463Z,42.42
2023-03-16T12:51:29.324Z,42.53
2023-03-16T12:53:59.387Z,43.35
2023-03-16T12:56:27.244Z,44.02
2023-03-16T12:58:56.296Z,43.82
2023-03-16T13:01:25.185Z,44.43
2023-03-16T13:03:53.141Z,44.42
2023-03-16T13:06:21.405Z,44.91
2023-03-16T13:08:49.652Z,45.23
2023-03-16T13:11:18.601Z,46.08
2023-03-16T13:13:46.847Z,46.14
2023-03-16T13:16:14.731Z,46.68
2023-03-16T13:18:45.382Z,47.03
2023-03-16T13:21:13.194Z,46.63
2023-03-16T13:23:41.913Z,47.04
2023-03-16T13:26:10.599Z,46.73
2023-03-16T13:28:39.165Z,46.92
2023-03-16T13:31:07.120Z,46.63
2023-03-16T13:33:36.988Z,47.33
2023-03-16T13:36:05.473Z,46.78
2023-03-16T13:38:33.989Z,46.65
2023-03-16T13:41:01.844Z,46.50
2023-03-16T13:43:30.220Z,46.92
2023-03-16T13:45:58.780Z,46.89
2023-03-16T13:48:27.030Z,46.48
2023-03-16T13:50:57.920Z,46.16
2023-03-16T13:53:26.190Z,45.19
2023-03-16T13:55:54.797Z,45.53
2023-03-16T13:58:22.597Z,44.92
2023-03-16T14:00:51.077Z,44.20
2023-03-16T14:03:19.562Z,43.29
2023-03-16T14:05:47.768Z,43.34
2023-03-16T14:08:15.753Z,42.78
2023-03-16T14:10:43.954Z,42.53
2023-03-16T14:13:12.598Z,41.52
2023-03-16T14:15:41.248Z,41.83
2023-03-16T14:18:09.845Z,42.04
2023-03-16T14:20:41.655Z,41.79
2023-03-16T14:23:09.851Z,42.47
2023-03-16T14:25:38.386Z,42.51
2023-03-16T14:28:06.761Z,43.38
2023-03-16T14:30:34.915Z,42.85
2023-03-16T14:33:02.816Z,43.01
2023-03-16T14:35:31.547Z,43.00
2023-03-16T14:38:00.198Z,43.47
2023-03-16T14:40:28.655Z,43.40
2023-03-16T14:42:56.878Z,43.15
2023-03-16T14:45:24.888Z,43.51
2023-03-16T14:47:53.951Z,43.85
2023-03-16T14:50:22.286Z,43.51
2023-03-16T14:52:51.704Z,43.57
2023-03-16T14:55:19.595Z,43.75
2023-03-16T14:57:47.451Z,43.75
2023-03-16T15:00:15.786Z,43.17
2023-03-16T15:02:44.729Z,42.98
2023-03-16T15:05:13.327Z,43.25
2023-03-16T15:07:41.781Z,42.97
2023-03-16T15:10:10.622Z,42.74
2023-03-16T15:12:38.920Z,42.57
2023-03-16T15:15:19.497Z,42.49
2023-03-16T15:17:47.510Z,42.81
2023-03-16T15:20:15.858Z,41.70
2023-03-16T15:22:43.860Z,41.32
2023-03-16T15:25:11.759Z,40.98
2023-03-16T15:27:40.707Z,40.60
2023-03-16T15:30:08.958Z,40.42
2023-03-16T17:19:35.339Z,49.99
2023-03-16T17:22:03.417Z,50.53
2023-03-16T17:24:31.687Z,50.48
2023-03-16T17:27:00.414Z,50.66
2023-03-16T17:29:28.260Z,50.61
2023-03-16T17:31:56.854Z,51.11
2023-03-16T17:34:25.008Z,51.04
2023-03-16T17:36:52.858Z,50.93
2023-03-16T17:39:21.259Z,51.38
2023-03-16T17:41:49.375Z,51.56
2023-03-16T17:44:20.243Z,51.12
2023-03-16T17:46:48.377Z,51.70
2023-03-16T17:49:18.213Z,51.82
2023-03-16T17:51:46.758Z,51.88
2023-03-16T17:54:14.604Z,52.05
2023-03-16T17:56:43.271Z,52.38
2023-03-16T17:59:11.453Z,52.31
2023-03-16T18:01:39.889Z,52.38
2023-03-16T18:04:10.001Z,52.49
2023-03-16T18:06:38.926Z,52.31
2023-03-16T18:09:08.155Z,52.78
2023-03-16T18:11:36.337Z,53.29
2023-03-16T18:14:04.279Z,53.32
2023-03-16T18:16:32.344Z,53.34
2023-03-16T18:19:00.504Z,53.06
2023-03-16T18:21:28.966Z,53.41
2023-03-16T18:23:57.113Z,53.80
2023-03-16T18:26:25.346Z,53.63
2023-03-16T18:28:53.940Z,53.97
2023-03-16T18:31:22.367Z,54.14
2023-03-16T18:33:50.870Z,54.34
2023-03-16T18:36:18.874Z,54.37
2023-03-16T18:38:46.899Z,54.82
2023-03-16T18:41:16.146Z,54.36
2023-03-16T18:43:44.376Z,54.79
2023-03-16T18:46:13.007Z,55.34
2023-03-16T18:48:41.079Z,55.15
2023-03-16T18:51:08.900Z,54.84
2023-03-16T18:53:36.764Z,55.22
2023-03-16T18:56:04.773Z,54.82
2023-03-16T18:58:32.573Z,55.44
2023-03-16T19:01:00.546Z,55.43
2023-03-16T19:03:28.561Z,55.95
2023-03-16T19:05:56.794Z,55.98
2023-03-16T19:08:24.551Z,55.66
2023-03-16T19:10:53.615Z,56.07
2023-03-16T19:13:21.735Z,56.13
2023-03-16T19:15:49.578Z,55.93
2023-03-16T19:18:17.417Z,55.89
2023-03-16T19:20:45.295Z,55.89
2023-03-16T19:23:13.142Z,56.06
2023-03-16T19:25:41.548Z,56.27
2023-03-16T19:28:09.785Z,55.99
2023-03-16T19:30:37.898Z,56.11
2023-03-16T19:33:05.985Z,56.20
2023-03-16T19:35:50.746Z,56.26
2023-03-16T19:38:19.725Z,55.92
2023-03-16T19:40:47.611Z,56.11
2023-03-16T19:43:15.425Z,56.29
2023-03-16T19:45:43.417Z,56.16
2023-03-16T19:48:11.662Z,56.34
2023-03-16T19:50:39.551Z,56.54
2023-03-16T19:53:08.325Z,56.42
2023-03-16T19:55:36.870Z,56.15
2023-03-16T19:58:07.940Z,56.44
2023-03-16T20:00:36.406Z,56.47
2023-03-16T20:03:04.326Z,56.53
2023-03-16T20:05:33.893Z,56.56
2023-03-16T20:08:01.944Z,56.70
2023-03-16T20:10:33.108Z,56.28
2023-03-16T20:13:01.046Z,56.23
2023-03-16T20:15:29.268Z,56.43
2023-03-16T20:17:57.410Z,56.16
2023-03-16T20:20:25.270Z,56.55
2023-03-16T20:22:55.987Z,56.11
2023-03-16T20:25:23.979Z,56.24
2023-03-16T20:27:51.727Z,56.48
2023-03-16T20:30:19.765Z,56.39
2023-03-16T20:32:48.117Z,56.22
2023-03-16T20:35:16.532Z,56.62
2023-03-16T20:37:44.484Z,56.10
2023-03-16T20:40:12.308Z,56.13
2023-03-16T20:42:40.241Z,56.33
2023-03-16T20:45:09.912Z,56.38
2023-03-16T20:47:39.076Z,56.21
2023-03-16T20:50:06.861Z,56.11
2023-03-16T20:52:34.818Z,55.71
2023-03-16T20:55:05.479Z,55.94
2023-03-16T20:57:33.429Z,55.71
2023-03-16T21:00:02.443Z,55.59
2023-03-16T21:02:30.323Z,55.54
2023-03-16T21:04:58.296Z,55.42
2023-03-16T21:07:26.217Z,55.00
2023-03-16T21:09:54.038Z,55.19
2023-03-16T21:12:22.538Z,54.72
2023-03-16T21:14:50.400Z,54.82
2023-03-16T21:17:19.341Z,54.51
2023-03-16T21:19:47.083Z,54.84
2023-03-16T21:22:15.046Z,54.65
2023-03-16T21:24:43.636Z,54.19
2023-03-16T21:27:11.752Z,53.99
2023-03-16T21:29:39.598Z,53.96
2023-03-16T21:32:08.252Z,54.24
2023-03-16T21:34:36.229Z,54.21
2023-03-16T21:37:05.198Z,54.23
2023-03-16T21:39:33.526Z,53.87
2023-03-16T21:42:01.680Z,54.16
2023-03-16T21:44:29.552Z,54.05
2023-03-16T21:46:57.456Z,53.63
2023-03-16T21:49:25.629Z,53.98
2023-03-16T21:51:53.510Z,54.07
2023-03-16T21:54:21.344Z,53.93
2023-03-16T21:56:50.497Z,53.71
2023-03-16T21:59:18.319Z,53.61
2023-03-16T22:02:01.153Z,53.87
2023-03-16T22:04:29.789Z,54.06
2023-03-16T22:06:57.762Z,54.11
2023-03-16T22:09:30.288Z,53.89
2023-03-16T22:11:58.761Z,53.64
2023-03-16T22:14:27.419Z,53.61
2023-03-16T22:16:55.700Z,53.58
2023-03-16T22:19:23.586Z,53.53
2023-03-16T22:21:51.476Z,53.46
2023-03-16T22:24:19.762Z,53.63
2023-03-16T22:26:48.937Z,53.26
2023-03-16T22:29:16.966Z,52.98
2023-03-16T22:31:44.693Z,53.16
2023-03-16T22:34:12.555Z,53.36
2023-03-16T22:36:40.581Z,53.18
2023-03-16T22:39:08.912Z,53.27
2023-03-16T22:41:36.621Z,53.22
2023-03-16T22:44:04.768Z,53.33
2023-03-16T22:46:32.487Z,53.32
2023-03-16T22:49:01.134Z,53.26
2023-03-16T22:51:28.851Z,53.33
2023-03-16T22:53:56.561Z,53.32
2023-03-16T22:56:24.538Z,53.36
2023-03-16T22:58:52.262Z,53.43
2023-03-16T23:01:20.339Z,53.05
2023-03-16T23:03:48.054Z,53.58
2023-03-16T23:06:16.400Z,52.97
2023-03-16T23:08:44.095Z,53.22
2023-03-16T23:11:12.110Z,53.33
2023-03-16T23:13:40.109Z,53.18
2023-03-16T23:16:07.933Z,53.06
2023-03-16T23:18:36.596Z,53.15
2023-03-16T23:21:04.278Z,53.70
2023-03-16T23:23:32.039Z,53.93
2023-03-16T23:25:59.985Z,53.56
2023-03-16T23:28:28.178Z,53.32
2023-03-16T23:30:55.763Z,53.37
2023-03-16T23:33:23.478Z,53.43
2023-03-16T23:35:51.390Z,53.41
2023-03-16T23:38:19.592Z,53.44
2023-03-16T23:40:47.322Z,53.44
2023-03-16T23:43:14.956Z,53.56
2023-03-16T23:45:42.782Z,53.19
2023-03-16T23:48:10.634Z,53.33
2023-03-16T23:50:38.986Z,53.19
2023-03-16T23:53:06.997Z,53.48
2023-03-16T23:55:34.695Z,53.27
2023-03-16T23:58:02.967Z,53.30
